Time;durP1;ratioP1;P1;durP2;ratioP2;P2;SDS_P1;SDS_P2;PMS_P1;PMS_P2;Temp;Humidity;BMP_temperature;BMP_pressure;BME280_temperature;BME280_humidity;BME280_pressure;Samples;Min_cycle;Max_cycle;Signal;HPM_P1;HPM_P2
2023/08/12 00:01:37;;;;;;;10.30;5.40;;;19.00;1.00;;;;;;5043993;28;20429;-80
2023/08/12 00:04:07;;;;;;;11.90;5.87;;;19.00;1.00;;;;;;5050595;28;20405;-80
2023/08/12 00:06:37;;;;;;;27.80;5.53;;;19.00;1.00;;;;;;5055618;28;20425;-79
2023/08/12 00:12:24;;;;;;;14.60;5.60;;;19.10;1.00;;;;;;5055755;28;20921;-80
2023/08/12 00:18:37;;;;;;;17.73;6.30;;;19.10;1.00;;;;;;5047743;28;20313;-79
2023/08/12 00:21:37;;;;;;;11.30;6.23;;;19.10;1.00;;;;;;5055385;28;20426;-79
2023/08/12 00:24:37;;;;;;;18.27;5.73;;;19.00;1.00;;;;;;5042368;28;20439;-79
2023/08/12 00:27:55;;;;;;;9.23;5.63;;;19.00;1.00;;;;;;5055065;28;20467;-80
2023/08/12 00:31:07;;;;;;;15.63;5.70;;;19.00;1.00;;;;;;5055347;28;20430;-79
2023/08/12 00:33:37;;;;;;;23.00;6.80;;;19.10;1.00;;;;;;5042209;28;20453;-78
2023/08/12 00:36:37;;;;;;;12.73;5.57;;;19.10;1.00;;;;;;5055226;28;20464;-78
2023/08/12 00:39:25;;;;;;;11.93;5.87;;;19.10;1.00;;;;;;5048399;28;20408;-78
2023/08/12 00:42:07;;;;;;;12.20;5.97;;;19.10;1.00;;;;;;5054550;28;20430;-78
2023/08/12 00:48:08;;;;;;;7.20;5.27;;;19.10;1.00;;;;;;5051863;28;20492;-78
2023/08/12 00:50:39;;;;;;;9.63;5.90;;;19.10;1.00;;;;;;5055361;28;20513;-79
2023/08/12 00:53:37;;;;;;;12.00;4.87;;;19.10;1.00;;;;;;5054553;28;20487;-79
2023/08/12 00:59:25;;;;;;;11.60;5.77;;;19.10;1.00;;;;;;5052108;28;20437;-81
2023/08/12 01:02:08;;;;;;;16.57;6.13;;;19.10;1.00;;;;;;5053202;28;20508;-79
2023/08/12 01:04:37;;;;;;;11.77;6.47;;;19.20;1.00;;;;;;5053434;28;20477;-79
2023/08/12 01:07:05;;;;;;;14.47;6.37;;;19.20;1.00;;;;;;5054312;28;20414;-79
2023/08/12 01:09:31;;;;;;;9.20;5.47;;;19.20;1.00;;;;;;5041183;28;20517;-80
2023/08/12 01:12:37;;;;;;;12.50;5.47;;;19.20;1.00;;;;;;5054786;28;20446;-80
2023/08/12 01:18:49;;;;;;;17.77;5.90;;;19.30;1.00;;;;;;5047667;28;20491;-80
2023/08/12 01:21:21;;;;;;;7.63;5.20;;;19.30;1.00;;;;;;5043682;28;20423;-79
2023/08/12 01:24:01;;;;;;;12.73;5.43;;;19.30;1.00;;;;;;5053124;28;20409;-79
2023/08/12 01:26:37;;;;;;;9.77;5.53;;;19.30;1.00;;;;;;5054118;28;20457;-80
2023/08/12 01:29:43;;;;;;;8.13;5.37;;;19.30;1.00;;;;;;5051982;28;20494;-79
2023/08/12 01:32:27;;;;;;;8.77;5.37;;;19.40;1.00;;;;;;5054287;28;20415;-80
2023/08/12 01:35:14;;;;;;;16.03;6.33;;;19.40;1.00;;;;;;5054199;28;20448;-79
2023/08/12 01:37:42;;;;;;;23.13;6.27;;;19.40;1.00;;;;;;5039663;28;20984;-78
2023/08/12 01:40:10;;;;;;;10.90;6.13;;;19.30;1.00;;;;;;5048036;28;20440;-78
2023/08/12 01:42:37;;;;;;;10.60;5.83;;;19.30;1.00;;;;;;5047053;28;20511;-79
2023/08/12 01:45:03;;;;;;;8.80;5.80;;;19.40;1.00;;;;;;5040164;28;20419;-79
2023/08/12 01:47:44;;;;;;;15.87;5.80;;;19.40;1.00;;;;;;5049410;28;20462;-78
2023/08/12 01:50:37;;;;;;;9.70;5.83;;;19.30;1.00;;;;;;5041189;28;20421;-80
2023/08/12 01:53:37;;;;;;;14.80;5.77;;;19.30;1.00;;;;;;5053826;28;20817;-79
2023/08/12 01:56:37;;;;;;;8.20;5.60;;;19.40;1.00;;;;;;5041604;28;20426;-80
2023/08/12 02:03:07;;;;;;;9.17;5.17;;;19.50;1.00;;;;;;5047665;28;20413;-79
2023/08/12 02:05:33;;;;;;;15.57;5.73;;;19.50;1.00;;;;;;5053646;28;20434;-80
2023/08/12 02:08:07;;;;;;;7.90;5.30;;;19.50;1.00;;;;;;5047129;28;20472;-80
2023/08/12 02:11:07;;;;;;;9.30;6.07;;;19.50;1.00;;;;;;5048279;28;20432;-80
2023/08/12 02:14:07;;;;;;;9.83;5.67;;;19.50;1.00;;;;;;5053598;28;21068;-80
2023/08/12 02:16:37;;;;;;;7.60;5.63;;;19.50;1.00;;;;;;5052139;28;20446;-80
2023/08/12 02:23:07;;;;;;;10.00;4.90;;;19.50;1.00;;;;;;5053345;28;20492;-80
2023/08/12 02:25:33;;;;;;;8.73;5.37;;;19.50;1.00;;;;;;5052956;28;20477;-79
2023/08/12 02:28:07;;;;;;;9.80;5.07;;;19.50;1.00;;;;;;5053273;28;20481;-79
2023/08/12 02:31:07;;;;;;;11.10;6.53;;;19.60;1.00;;;;;;5052784;28;20229;-79
2023/08/12 02:33:37;;;;;;;10.80;5.80;;;19.60;1.00;;;;;;5053439;28;20876;-80
2023/08/12 02:36:37;;;;;;;16.63;5.77;;;19.60;1.00;;;;;;5055563;28;20816;-78
2023/08/12 02:39:37;;;;;;;22.90;6.43;;;19.60;1.00;;;;;;5050782;28;20397;-78
2023/08/12 02:42:37;;;;;;;13.30;5.63;;;19.60;1.00;;;;;;5053418;28;20417;-78
2023/08/12 02:45:37;;;;;;;18.13;6.50;;;19.60;1.00;;;;;;5040066;28;20496;-77
2023/08/12 02:48:03;;;;;;;16.17;5.80;;;19.60;1.00;;;;;;5052835;28;20541;-78
2023/08/12 02:50:38;;;;;;;11.20;5.93;;;19.40;1.00;;;;;;5058508;28;20775;-78
2023/08/12 02:56:44;;;;;;;16.80;6.87;;;19.40;1.00;;;;;;5049780;28;20801;-78
2023/08/12 02:59:19;;;;;;;10.30;5.90;;;19.50;1.00;;;;;;5048327;28;20488;-78
2023/08/12 03:05:08;;;;;;;14.80;6.80;;;19.60;1.00;;;;;;5052595;28;20421;-79
2023/08/12 03:07:37;;;;;;;13.03;6.90;;;19.70;1.00;;;;;;5052047;28;20473;-79
2023/08/12 03:10:38;;;;;;;10.83;6.53;;;19.70;1.00;;;;;;5053085;28;20415;-79
2023/08/12 03:13:37;;;;;;;13.13;6.83;;;19.70;1.00;;;;;;5043891;28;20420;-78
2023/08/12 03:16:03;;;;;;;15.97;6.60;;;19.60;1.00;;;;;;5046142;28;20435;-79
2023/08/12 03:18:37;;;;;;;17.93;6.90;;;19.60;1.00;;;;;;5047511;28;20525;-80
2023/08/12 03:21:13;;;;;;;10.80;7.10;;;19.60;1.00;;;;;;5040383;28;20412;-80
2023/08/12 03:27:37;;;;;;;22.20;7.97;;;19.60;1.00;;;;;;5055963;28;20460;-79
2023/08/12 03:30:31;;;;;;;16.97;7.40;;;19.60;1.00;;;;;;5056821;28;20410;-80
2023/08/12 03:33:07;;;;;;;10.70;6.90;;;19.70;1.00;;;;;;5056556;28;20445;-80
2023/08/12 03:35:46;;;;;;;11.67;7.17;;;19.60;1.00;;;;;;5051928;28;20415;-82
2023/08/12 03:38:14;;;;;;;13.83;7.00;;;19.70;1.00;;;;;;5054806;28;20430;-83
2023/08/12 03:41:07;;;;;;;10.93;7.30;;;19.70;1.00;;;;;;5046958;28;20455;-82
2023/08/12 03:44:07;;;;;;;18.37;8.27;;;19.70;1.00;;;;;;5042357;28;20388;-83
2023/08/12 03:46:37;;;;;;;14.30;7.67;;;19.80;1.00;;;;;;5055296;28;20442;-82
2023/08/12 03:49:08;;;;;;;17.37;7.83;;;19.80;1.00;;;;;;5055391;28;20458;-82
2023/08/12 03:51:37;;;;;;;19.60;7.93;;;19.80;1.00;;;;;;5054366;28;20435;-82
2023/08/12 03:54:07;;;;;;;17.70;8.50;;;19.80;1.00;;;;;;5056144;28;20913;-82
2023/08/12 03:57:07;;;;;;;11.10;7.70;;;19.80;1.00;;;;;;5055997;28;20467;-82
2023/08/12 03:59:51;;;;;;;10.70;7.60;;;19.80;1.00;;;;;;5042985;28;20416;-82
2023/08/12 04:02:37;;;;;;;18.23;8.20;;;19.80;1.00;;;;;;5049182;28;20412;-83
2023/08/12 04:05:07;;;;;;;13.10;7.40;;;19.90;1.00;;;;;;5052282;28;20521;-83
2023/08/12 04:07:37;;;;;;;16.10;8.03;;;19.90;1.00;;;;;;5053909;28;20568;-82
2023/08/12 04:10:08;;;;;;;15.00;8.07;;;19.90;1.00;;;;;;5065078;28;20428;-82
2023/08/12 04:12:33;;;;;;;11.43;7.30;;;19.90;1.00;;;;;;5052704;28;20445;-82
2023/08/12 04:15:00;;;;;;;14.03;7.00;;;19.90;1.00;;;;;;5055264;28;20402;-82
2023/08/12 04:17:26;;;;;;;22.60;8.83;;;19.90;1.00;;;;;;5037500;28;20543;-83
2023/08/12 04:20:05;;;;;;;15.70;8.10;;;19.90;1.00;;;;;;5043967;28;21036;-83
2023/08/12 04:22:37;;;;;;;11.13;8.33;;;20.00;1.00;;;;;;5055006;28;20185;-83
2023/08/12 04:25:04;;;;;;;18.13;8.40;;;20.00;1.00;;;;;;5055919;28;20450;-83
2023/08/12 04:28:07;;;;;;;19.63;8.23;;;20.00;1.00;;;;;;5053818;28;20460;-83
2023/08/12 04:30:33;;;;;;;14.83;8.40;;;19.90;1.00;;;;;;5055624;28;20427;-83
2023/08/12 04:33:07;;;;;;;15.73;9.90;;;19.90;1.00;;;;;;5051517;28;20434;-82
2023/08/12 04:35:41;;;;;;;12.50;8.80;;;19.90;2.70;;;;;;5040924;28;20647;-82
2023/08/12 04:38:08;;;;;;;17.30;10.87;;;19.90;1.00;;;;;;5054375;28;20433;-80
2023/08/12 04:40:34;;;;;;;19.93;10.20;;;20.00;2.20;;;;;;5049512;28;20496;-80
2023/08/12 04:43:37;;;;;;;27.47;11.83;;;19.80;7.60;;;;;;5049949;28;20905;-79
2023/08/12 04:46:03;;;;;;;18.93;11.23;;;19.90;11.00;;;;;;5055363;28;20185;-80
2023/08/12 04:48:37;;;;;;;25.63;11.27;;;19.90;11.00;;;;;;5052704;28;20459;-79
2023/08/12 04:51:07;;;;;;;24.13;12.30;;;20.00;11.70;;;;;;5055458;28;20208;-82
2023/08/12 04:53:37;;;;;;;29.03;10.20;;;20.00;11.70;;;;;;5055230;28;20465;-82
2023/08/12 04:56:07;;;;;;;20.47;11.23;;;20.10;11.20;;;;;;5053638;28;20394;-82
2023/08/12 04:58:37;;;;;;;19.23;10.83;;;20.10;13.10;;;;;;5054466;28;20466;-83
2023/08/12 05:01:37;;;;;;;15.30;10.23;;;20.10;14.40;;;;;;5053837;28;20946;-83
2023/08/12 05:04:07;;;;;;;17.43;10.20;;;20.10;14.10;;;;;;5054470;28;20541;-82
2023/08/12 05:06:37;;;;;;;23.93;11.83;;;20.30;7.00;;;;;;5043316;28;20433;-82
2023/08/12 05:09:08;;;;;;;17.40;10.80;;;20.30;9.90;;;;;;5047589;28;20870;-82
2023/08/12 05:11:37;;;;;;;24.03;10.60;;;20.30;8.60;;;;;;5045012;28;20996;-82
2023/08/12 05:14:08;;;;;;;17.07;9.40;;;20.30;8.20;;;;;;5050131;28;20798;-82
2023/08/12 05:16:37;;;;;;;21.63;10.83;;;20.40;9.00;;;;;;5043544;28;20446;-82
2023/08/12 05:19:03;;;;;;;14.87;9.83;;;20.40;8.20;;;;;;5054439;28;20398;-82
2023/08/12 05:21:37;;;;;;;20.70;10.40;;;20.50;4.30;;;;;;5044721;28;20402;-82
2023/08/12 05:27:55;;;;;;;17.90;10.83;;;20.60;3.50;;;;;;5052510;28;20499;-82
2023/08/12 05:30:31;;;;;;;69.47;16.33;;;20.70;1.00;;;;;;5040444;28;20472;-83
2023/08/12 05:33:07;;;;;;;14.80;10.30;;;20.70;1.00;;;;;;5052610;28;20453;-89
2023/08/12 05:35:38;;;;;;;12.80;9.00;;;;;;;;;;5049050;28;20464;-87
2023/08/12 05:38:04;;;;;;;13.77;9.47;;;20.80;1.00;;;;;;5046412;28;20983;-81
2023/08/12 05:40:49;;;;;;;15.13;9.70;;;20.80;1.00;;;;;;5053889;28;20519;-81
2023/08/12 05:46:55;;;;;;;14.47;9.40;;;20.80;1.00;;;;;;5047145;28;20497;-81
2023/08/12 05:49:25;;;;;;;22.60;9.73;;;20.80;1.00;;;;;;5041359;28;20506;-81
2023/08/12 05:52:31;;;;;;;27.13;10.70;;;20.80;1.00;;;;;;5048418;28;20949;-87
2023/08/12 05:58:31;;;;;;;14.77;8.93;;;21.00;1.00;;;;;;5053833;28;20462;-87
2023/08/12 06:04:19;;;;;;;14.70;9.40;;;20.90;1.00;;;;;;5047709;28;20543;-87
2023/08/12 06:07:06;;;;;;;19.57;9.27;;;20.90;1.00;;;;;;5041013;28;20431;-86
2023/08/12 06:10:25;;;;;;;18.40;10.83;;;20.80;1.00;;;;;;5054330;28;20197;-87
2023/08/12 06:13:31;;;;;;;18.17;9.60;;;20.80;1.00;;;;;;5036343;28;20433;-87
2023/08/12 06:19:18;;;;;;;14.50;9.63;;;20.80;1.00;;;;;;5047074;28;20444;-87
2023/08/12 06:28:28;;;;;;;18.90;10.33;;;20.90;1.00;;;;;;5046606;28;20499;-87
2023/08/12 06:31:07;;;;;;;25.63;10.53;;;20.90;1.00;;;;;;5046647;28;20427;-87
2023/08/12 06:33:33;;;;;;;37.20;13.70;;;21.10;1.00;;;;;;5039282;28;20187;-84
2023/08/12 06:42:43;;;;;;;14.40;10.40;;;21.60;1.00;;;;;;5034210;28;20366;-86
2023/08/12 06:48:30;;;;;;;19.60;9.97;;;21.80;1.00;;;;;;5051921;28;20282;-83
2023/08/12 06:50:56;;;;;;;15.00;9.77;;;21.80;1.00;;;;;;5042034;28;20427;-85
2023/08/12 06:53:25;;;;;;;13.87;9.50;;;21.90;1.00;;;;;;5044350;28;20546;-82
2023/08/12 06:55:50;;;;;;;24.03;10.27;;;22.00;1.00;;;;;;5041592;28;20434;-82
2023/08/12 06:58:37;;;;;;;19.33;10.30;;;22.10;1.00;;;;;;5053111;28;20514;-80
2023/08/12 07:01:03;;;;;;;12.83;8.90;;;22.40;1.00;;;;;;5050058;28;20199;-81
2023/08/12 07:03:49;;;;;;;16.23;9.87;;;22.60;1.00;;;;;;5057017;28;20447;-80
2023/08/12 07:07:06;;;;;;;14.93;9.67;;;22.90;1.00;;;;;;5045943;28;20180;-80
2023/08/12 07:16:15;;;;;;;14.53;8.70;;;23.40;1.00;;;;;;5054666;28;20938;-83
2023/08/12 07:32:20;;;;;;;15.23;8.77;;;24.00;1.00;;;;;;5052790;28;20410;-80
2023/08/12 07:38:08;;;;;;;9.00;7.50;;;24.00;1.00;;;;;;5047950;28;20547;-80
2023/08/12 07:54:02;;;;;;;16.73;8.10;;;24.50;1.00;;;;;;5062636;28;20456;-84
2023/08/12 07:56:31;;;;;;;13.73;8.10;;;24.80;1.00;;;;;;5052344;28;20893;-84
2023/08/12 07:59:31;;;;;;;25.90;9.97;;;24.90;1.00;;;;;;5050149;28;20242;-84
2023/08/12 08:06:01;;;;;;;10.40;7.60;;;25.20;1.00;;;;;;5045146;28;20459;-85
2023/08/12 08:11:48;;;;;;;8.53;6.63;;;25.70;1.00;;;;;;5055959;28;20403;-80
2023/08/12 08:17:36;;;;;;;16.30;7.73;;;25.80;1.00;;;;;;5055423;28;20195;-80
2023/08/12 08:20:08;;;;;;;7.90;5.93;;;26.00;1.00;;;;;;5055344;28;20871;-80
2023/08/12 08:22:33;;;;;;;22.70;7.20;;;26.00;1.00;;;;;;5056066;28;20172;-80
2023/08/12 08:25:02;;;;;;;15.80;6.73;;;26.10;1.00;;;;;;5055958;28;20428;-81
2023/08/12 08:27:31;;;;;;;12.43;7.40;;;26.30;1.00;;;;;;5054807;28;20197;-80
2023/08/12 08:30:01;;;;;;;8.37;6.97;;;26.20;1.00;;;;;;5043960;28;20905;-81
2023/08/12 08:32:31;;;;;;;21.03;8.07;;;26.20;1.00;;;;;;5053793;28;20420;-80
2023/08/12 08:35:13;;;;;;;12.53;7.20;;;26.20;1.00;;;;;;5053793;28;20454;-81
2023/08/12 08:37:43;;;;;;;14.20;7.03;;;26.40;1.00;;;;;;5042654;28;20443;-82
2023/08/12 08:40:10;;;;;;;9.40;6.40;;;26.50;1.00;;;;;;5055296;28;20420;-82
2023/08/12 08:42:57;;;;;;;9.47;6.50;;;26.50;1.00;;;;;;5054104;28;20509;-82
2023/08/12 08:46:01;;;;;;;10.00;6.40;;;26.60;1.00;;;;;;5051894;28;20444;-81
2023/08/12 08:49:07;;;;;;;7.80;6.30;;;26.50;1.00;;;;;;5054893;28;20463;-82
2023/08/12 08:51:33;;;;;;;9.13;6.17;;;26.50;1.00;;;;;;5041160;28;20931;-81
2023/08/12 08:53:59;;;;;;;9.07;6.33;;;26.60;1.00;;;;;;5046900;28;20399;-82
2023/08/12 08:56:25;;;;;;;12.80;6.20;;;26.60;1.00;;;;;;5035620;28;20174;-82
2023/08/12 08:58:52;;;;;;;14.90;7.70;;;26.60;1.00;;;;;;5038406;28;20489;-81
2023/08/12 09:01:22;;;;;;;16.03;7.57;;;26.70;1.00;;;;;;5048834;28;20500;-81
2023/08/12 09:03:49;;;;;;;22.40;6.60;;;26.80;1.00;;;;;;5043072;28;20450;-82
2023/08/12 09:06:15;;;;;;;10.10;6.40;;;27.00;1.00;;;;;;5039315;28;20404;-82
2023/08/12 09:08:45;;;;;;;13.20;6.80;;;27.20;1.00;;;;;;5043661;28;20815;-78
2023/08/12 09:11:13;;;;;;;12.87;6.50;;;27.60;1.00;;;;;;5047567;28;20162;-84
2023/08/12 09:13:39;;;;;;;8.93;6.20;;;27.90;1.00;;;;;;5048307;28;20516;-85
2023/08/12 09:16:04;;;;;;;11.47;7.20;;;28.20;1.00;;;;;;5056689;28;20460;-85
2023/08/12 09:18:31;;;;;;;10.77;6.37;;;28.50;1.00;;;;;;5047907;28;20187;-85
2023/08/12 09:21:37;;;;;;;11.47;6.30;;;28.70;1.00;;;;;;5040565;28;20184;-85
2023/08/12 09:24:06;;;;;;;8.23;5.77;;;28.70;1.00;;;;;;5055084;28;20410;-85
2023/08/12 09:26:32;;;;;;;10.80;6.23;;;28.90;1.00;;;;;;5055177;28;20431;-85
2023/08/12 09:29:00;;;;;;;11.83;5.80;;;29.00;1.00;;;;;;5038612;28;20535;-87
2023/08/12 09:31:32;;;;;;;7.07;5.13;;;29.30;1.00;;;;;;5054794;28;20178;-86
2023/08/12 09:34:08;;;;;;;16.73;7.00;;;29.60;1.00;;;;;;5053205;28;20494;-86
2023/08/12 09:36:35;;;;;;;16.60;7.00;;;29.60;1.00;;;;;;5051538;28;20432;-86
2023/08/12 09:39:08;;;;;;;11.73;6.20;;;29.20;1.00;;;;;;5053823;28;20436;-86
2023/08/12 09:41:41;;;;;;;7.93;5.40;;;29.50;1.00;;;;;;5055002;28;20445;-85
2023/08/12 09:44:43;;;;;;;5.60;5.07;;;29.30;1.00;;;;;;5061333;28;20434;-85
2023/08/12 09:47:41;;;;;;;11.50;5.17;;;29.20;1.00;;;;;;5047396;28;20425;-86
2023/08/12 09:50:55;;;;;;;6.20;4.40;;;29.50;1.00;;;;;;5040297;28;20514;-85
2023/08/12 09:53:50;;;;;;;7.50;4.40;;;29.80;1.00;;;;;;5054768;28;20410;-85
2023/08/12 10:00:03;;;;;;;8.17;4.67;;;29.90;1.00;;;;;;5048530;28;20466;-85
2023/08/12 10:09:33;;;;;;;6.70;3.90;;;29.50;1.00;;;;;;5053648;28;20498;-84
2023/08/12 10:12:25;;;;;;;5.00;4.40;;;29.60;1.00;;;;;;5043209;28;20414;-81
2023/08/12 10:15:04;;;;;;;7.97;4.30;;;29.70;1.00;;;;;;5053200;28;20418;-81
2023/08/12 10:21:10;;;;;;;5.53;4.40;;;29.40;1.00;;;;;;5053286;28;20455;-81
2023/08/12 10:23:37;;;;;;;6.53;3.73;;;28.80;1.00;;;;;;5033764;28;20394;-81
2023/08/12 10:26:05;;;;;;;10.23;4.70;;;28.30;1.00;;;;;;5051185;28;21034;-81
2023/08/12 10:28:36;;;;;;;12.63;4.70;;;27.90;1.00;;;;;;5053000;28;20452;-80
2023/08/12 10:44:57;;;;;;;8.30;5.20;;;25.00;1.00;;;;;;5052912;28;20933;-83
2023/08/12 10:47:26;;;;;;;8.87;5.43;;;24.70;1.00;;;;;;5064778;28;20474;-83
2023/08/12 11:00:43;;;;;;;8.23;5.70;;;24.00;1.00;;;;;;5052669;28;20423;-80
2023/08/12 11:07:14;;;;;;;9.27;6.17;;;23.90;1.00;;;;;;5051281;28;20407;-81
2023/08/12 11:10:26;;;;;;;11.17;6.80;;;23.80;1.00;;;;;;5052993;28;20429;-81
2023/08/12 11:13:13;;;;;;;25.37;8.97;;;23.80;1.00;;;;;;5051201;28;20468;-80
2023/08/12 11:19:43;;;;;;;10.77;6.57;;;23.70;1.00;;;;;;5049873;28;20423;-81
2023/08/12 11:25:32;;;;;;;10.63;6.40;;;23.70;1.00;;;;;;5052580;28;20427;-81
2023/08/12 11:28:03;;;;;;;10.77;7.20;;;23.80;1.00;;;;;;5052950;28;20445;-80
2023/08/12 11:30:45;;;;;;;9.33;7.03;;;23.90;1.00;;;;;;5053016;28;20398;-81
2023/08/12 11:33:37;;;;;;;15.13;6.97;;;24.00;1.00;;;;;;5051722;28;20437;-81
2023/08/12 11:36:03;;;;;;;7.77;5.37;;;24.10;1.00;;;;;;5039183;28;20425;-82
2023/08/12 11:38:44;;;;;;;11.13;7.60;;;24.10;1.00;;;;;;5051954;28;20944;-83
2023/08/12 11:41:23;;;;;;;16.63;8.23;;;24.20;1.00;;;;;;5042985;28;20191;-81
2023/08/12 11:47:10;;;;;;;17.20;8.90;;;24.50;1.00;;;;;;5056474;28;20396;-84
2023/08/12 11:56:20;;;;;;;9.57;6.80;;;24.70;1.00;;;;;;5051020;28;20382;-84
2023/08/12 11:59:02;;;;;;;7.50;5.23;;;24.90;1.00;;;;;;5056251;28;20426;-84
2023/08/12 12:02:07;;;;;;;12.63;5.47;;;25.00;1.00;;;;;;5044524;28;20441;-84
2023/08/12 12:04:34;;;;;;;13.63;7.30;;;25.00;1.00;;;;;;5037767;28;20448;-83
2023/08/12 12:07:17;;;;;;;9.70;5.30;;;25.10;1.00;;;;;;5043315;28;20432;-84
2023/08/12 12:09:44;;;;;;;10.70;5.20;;;25.20;1.00;;;;;;5048483;28;20440;-84
2023/08/12 12:12:10;;;;;;;8.87;5.17;;;25.20;1.00;;;;;;5044674;28;20400;-82
2023/08/12 12:14:36;;;;;;;8.63;4.47;;;25.20;1.00;;;;;;5049797;28;20409;-82
2023/08/12 12:17:08;;;;;;;9.27;4.87;;;25.30;1.00;;;;;;5047025;28;20912;-81
2023/08/12 12:19:41;;;;;;;7.50;4.20;;;25.30;1.00;;;;;;5047791;28;20557;-81
2023/08/12 12:23:01;;;;;;;6.43;3.63;;;25.10;1.00;;;;;;5055804;28;20415;-81
2023/08/12 12:28:49;;;;;;;8.60;3.50;;;25.10;1.00;;;;;;5055500;28;20478;-82
2023/08/12 12:38:08;;;;;;;4.53;3.03;;;25.30;1.00;;;;;;5045670;28;20398;-82
2023/08/12 12:41:07;;;;;;;5.87;3.07;;;25.40;1.00;;;;;;5039287;28;20449;-83
2023/08/12 12:47:09;;;;;;;4.70;3.30;;;25.60;1.00;;;;;;5055370;28;20383;-82
2023/08/12 12:56:37;;;;;;;4.90;2.60;;;26.40;1.00;;;;;;5052985;28;20411;-81
2023/08/12 13:09:09;;;;;;;3.97;1.83;;;26.80;1.00;;;;;;5047110;28;20461;-80
2023/08/12 13:15:19;;;;;;;5.77;2.10;;;27.10;1.00;;;;;;5035477;28;20767;-86
2023/08/12 13:18:19;;;;;;;3.23;2.10;;;27.30;1.00;;;;;;5052606;28;20477;-87
2023/08/12 13:21:37;;;;;;;1.67;1.57;;;27.20;1.00;;;;;;5054317;28;20517;-86
2023/08/12 13:24:03;;;;;;;5.60;2.00;;;27.30;1.00;;;;;;5054247;28;20403;-87
2023/08/12 13:30:25;;;;;;;2.93;1.80;;;27.20;1.00;;;;;;5037044;28;20970;-87
2023/08/12 13:36:32;;;;;;;7.50;2.70;;;27.00;1.00;;;;;;5042918;28;20393;-86
2023/08/12 13:42:32;;;;;;;12.57;3.50;;;27.10;1.00;;;;;;5049786;28;20523;-86
2023/08/12 13:48:19;;;;;;;10.10;3.20;;;27.20;1.00;;;;;;5053874;28;20461;-79
2023/08/12 13:51:08;;;;;;;6.30;1.80;;;27.30;1.00;;;;;;5045759;28;20788;-80
2023/08/12 13:53:50;;;;;;;7.83;2.23;;;27.20;1.00;;;;;;5047627;28;20172;-79
2023/08/12 13:57:01;;;;;;;3.97;1.73;;;27.60;1.00;;;;;;5047412;28;20413;-79
2023/08/12 14:03:02;;;;;;;2.60;2.20;;;28.10;1.00;;;;;;5053024;28;20453;-79
2023/08/12 14:06:07;;;;;;;2.53;1.97;;;28.50;1.00;;;;;;5053408;28;20408;-79
2023/08/12 14:08:38;;;;;;;2.60;1.90;;;28.70;1.00;;;;;;5041953;28;20470;-79
2023/08/12 14:11:25;;;;;;;2.60;1.90;;;29.00;1.00;;;;;;5037884;28;20960;-79
2023/08/12 14:14:37;;;;;;;4.80;2.30;;;28.90;1.00;;;;;;5045933;28;20526;-87
2023/08/12 14:17:03;;;;;;;1.67;1.57;;;29.50;1.00;;;;;;5033362;28;20418;-87
2023/08/12 14:19:38;;;;;;;2.97;1.97;;;30.10;1.00;;;;;;5040876;28;20445;-85
2023/08/12 14:25:25;;;;;;;2.73;2.10;;;29.90;1.00;;;;;;5053739;28;20460;-90
2023/08/12 14:28:04;;;;;;;18.90;4.60;;;;;;;;;;5049251;28;20964;-89
2023/08/12 14:31:27;;;;;;;7.83;2.30;;;30.00;1.00;;;;;;5050135;28;20198;-92
2023/08/12 14:33:49;;;;;;;3.70;1.50;;;30.00;1.00;;;;;;5042647;28;20437;-91
2023/08/12 14:40:02;;;;;;;4.63;2.60;;;30.10;1.00;;;;;;5048792;28;20197;-92
2023/08/12 14:46:26;;;;;;;4.93;2.00;;;30.00;1.00;;;;;;5040539;28;20449;-82
2023/08/12 14:49:54;;;;;;;22.03;19.37;;;29.80;1.00;;;;;;5051213;28;20510;-82
2023/08/12 14:52:28;;;;;;;15.23;12.63;;;29.80;1.00;;;;;;4952993;28;20482;-82
2023/08/12 14:55:18;;;;;;;11.10;9.97;;;;;;;;;;4991125;28;20460;-81
2023/08/12 14:57:44;;;;;;;88.13;81.17;;;;;;;;;;4974886;28;20511;-81
2023/08/12 15:00:26;;;;;;;34.30;21.17;;;30.30;1.00;;;;;;4973140;28;20932;-81
2023/08/12 15:03:14;;;;;;;10.10;9.10;;;30.30;1.00;;;;;;4989320;28;20551;-89
2023/08/12 15:06:29;;;;;;;7.70;3.50;;;30.60;1.00;;;;;;4975410;28;20433;-90
2023/08/12 15:09:19;;;;;;;30.40;27.83;;;30.60;1.00;;;;;;4973036;28;20493;-88
2023/08/12 15:11:50;;;;;;;72.80;66.73;;;30.60;1.00;;;;;;4963873;28;20433;-89
2023/08/12 15:14:43;;;;;;;114.63;105.13;;;30.50;1.00;;;;;;4976487;28;20952;-88
2023/08/12 15:17:37;;;;;;;63.90;58.27;;;29.90;1.00;;;;;;4975907;28;20426;-89
2023/08/12 15:20:55;;;;;;;144.50;133.30;;;29.70;1.00;;;;;;4995926;28;20440;-88
2023/08/12 15:26:50;;;;;;;4.97;2.50;;;;;;;;;;4995115;28;20966;-87
2023/08/12 15:29:21;;;;;;;308.93;282.77;;;29.50;1.00;;;;;;5013412;28;20499;-86
2023/08/12 15:35:55;;;;;;;412.30;376.23;;;30.50;1.00;;;;;;5057496;28;20397;-88
2023/08/12 15:39:02;;;;;;;532.77;487.03;;;31.20;1.00;;;;;;5056281;28;20928;-87
2023/08/12 15:41:28;;;;;;;399.93;365.47;;;31.70;1.00;;;;;;5052923;28;20422;-88
2023/08/12 15:43:54;;;;;;;483.27;441.77;;;;;;;;;;5055724;28;20525;-80
2023/08/12 15:46:31;;;;;;;443.00;404.50;;;32.40;1.00;;;;;;5054468;28;20180;-80
2023/08/12 15:49:31;;;;;;;411.53;375.90;;;32.20;1.00;;;;;;5047906;28;20930;-80
2023/08/12 15:52:20;;;;;;;377.97;345.43;;;31.30;1.00;;;;;;5047709;28;20426;-82
2023/08/12 15:58:07;;;;;;;468.27;427.47;;;29.70;1.00;;;;;;5049261;28;20440;-80
2023/08/12 16:04:25;;;;;;;452.90;412.90;;;29.40;1.00;;;;;;5044473;28;20246;-80
2023/08/12 16:07:07;;;;;;;381.20;348.03;;;29.20;1.00;;;;;;5041220;28;20436;-80
2023/08/12 16:12:54;;;;;;;457.77;417.20;;;29.10;1.00;;;;;;5052662;28;20455;-80
2023/08/12 16:15:55;;;;;;;590.77;539.30;;;30.80;1.00;;;;;;5056557;28;20394;-88
2023/08/12 16:18:32;;;;;;;654.67;597.83;;;31.00;1.00;;;;;;5055262;28;20420;-88
2023/08/12 16:21:25;;;;;;;687.37;627.70;;;31.50;1.00;;;;;;5056147;28;20422;-84
2023/08/12 16:37:19;;;;;;;684.07;622.10;;;28.80;1.00;;;;;;5053953;28;20480;-80
2023/08/12 16:43:43;;;;;;;591.73;539.27;;;28.60;1.00;;;;;;5051381;28;20456;-80
2023/08/12 16:46:26;;;;;;;572.23;520.30;;;28.40;1.00;;;;;;5044729;28;20523;-80
2023/08/12 16:56:07;;;;;;;660.83;599.93;;;27.70;1.00;;;;;;5052613;28;20605;-80
2023/08/12 17:08:39;;;;;;;569.30;517.27;;;27.10;1.00;;;;;;5049685;28;20844;-86
2023/08/12 17:15:37;;;;;;;609.97;552.23;;;27.10;1.00;;;;;;5050596;28;20664;-87
2023/08/12 17:18:03;;;;;;;579.07;522.50;;;26.90;1.00;;;;;;5050681;28;20448;-92
2023/08/12 17:20:29;;;;;;;658.57;595.47;;;26.70;1.00;;;;;;5044249;28;20407;-92
2023/08/12 17:29:38;;;;;;;615.83;555.63;;;26.80;1.00;;;;;;5046429;28;21005;-88
2023/08/12 17:32:04;;;;;;;693.97;620.03;;;26.90;1.00;;;;;;5040721;28;20448;-89
2023/08/12 17:34:32;;;;;;;701.27;623.33;;;26.90;1.00;;;;;;5042980;28;20186;-88
2023/08/12 17:37:14;;;;;;;693.87;625.07;;;27.00;1.00;;;;;;5036616;28;20434;-87
2023/08/12 17:39:39;;;;;;;715.30;614.57;;;26.60;1.00;;;;;;5046214;28;20433;-88
2023/08/12 17:42:49;;;;;;;804.10;652.87;;;26.60;1.00;;;;;;5045615;28;20421;-88
2023/08/12 17:45:20;;;;;;;902.37;647.50;;;26.60;1.00;;;;;;5046244;28;20181;-83
2023/08/12 17:51:12;;;;;;;922.80;629.67;;;26.50;1.00;;;;;;5048984;28;20888;-82
2023/08/12 17:53:50;;;;;;;885.90;514.93;;;26.30;1.00;;;;;;5054085;28;20418;-82
2023/08/12 17:59:38;;;;;;;842.80;416.10;;;26.30;1.00;;;;;;5048399;28;20473;-82
2023/08/12 18:08:47;;;;;;;882.40;624.17;;;26.50;1.00;;;;;;5053466;28;20473;-83
2023/08/12 18:11:13;;;;;;;720.67;637.67;;;26.40;1.00;;;;;;5053390;28;20864;-81
2023/08/12 18:14:21;;;;;;;690.23;612.17;;;26.30;1.00;;;;;;5053528;28;20179;-81
2023/08/12 18:20:09;;;;;;;704.23;590.87;;;26.10;1.00;;;;;;5039516;28;20481;-81
2023/08/12 18:29:18;;;;;;;676.20;608.13;;;25.60;1.00;;;;;;5033581;28;20434;-83
2023/08/12 18:35:43;;;;;;;652.10;583.77;;;25.30;1.00;;;;;;5044292;28;20264;-83
2023/08/12 18:45:46;;;;;;;528.97;475.70;;;24.70;1.00;;;;;;5050284;28;20889;-80
2023/08/12 18:51:33;;;;;;;461.13;413.43;;;24.30;1.00;;;;;;5052196;28;20518;-81
2023/08/12 18:54:08;;;;;;;594.07;531.60;;;24.10;1.00;;;;;;5056844;28;20895;-82
2023/08/12 19:04:01;;;;;;;544.37;487.50;;;23.60;1.00;;;;;;5048777;28;20409;-88
2023/08/12 19:07:06;;;;;;;558.73;500.13;;;23.50;1.00;;;;;;5044984;28;20426;-87
2023/08/12 19:09:31;;;;;;;779.90;510.30;;;23.30;1.00;;;;;;5056503;28;20512;-87
2023/08/12 19:15:49;;;;;;;804.70;528.30;;;23.00;1.00;;;;;;5048926;28;20201;-88
2023/08/12 19:21:37;;;;;;;848.77;505.23;;;22.70;1.00;;;;;;5049094;28;20396;-84
2023/08/12 19:24:04;;;;;;;801.93;498.30;;;22.60;1.00;;;;;;5056622;28;20401;-82
2023/08/12 19:27:07;;;;;;;809.07;471.57;;;22.50;1.00;;;;;;5056996;28;20766;-81
2023/08/12 19:30:03;;;;;;;809.20;479.43;;;22.40;1.00;;;;;;5047762;28;20458;-83
2023/08/12 19:32:55;;;;;;;727.00;470.07;;;22.20;1.00;;;;;;5044425;28;20489;-80
2023/08/12 19:36:14;;;;;;;581.37;439.87;;;22.10;1.00;;;;;;5049959;28;21037;-80
2023/08/12 19:42:01;;;;;;;432.47;387.13;;;22.00;1.00;;;;;;5042729;28;20933;-80
2023/08/12 19:51:11;;;;;;;66.27;60.87;;;21.80;1.00;;;;;;5056601;28;20370;-84